createdAt,value
2023-05-07T00:00:21.338Z,43.54
2023-05-07T00:10:45.020Z,43.78
2023-05-07T00:20:52.317Z,44.10
2023-05-07T00:30:55.970Z,44.24
2023-05-07T00:40:59.537Z,44.76
2023-05-07T00:51:03.348Z,45.07
2023-05-07T01:01:09.203Z,45.41
2023-05-07T01:11:13.739Z,45.26
2023-05-07T01:21:19.361Z,45.55
2023-05-07T01:31:25.780Z,45.89
2023-05-07T01:41:29.840Z,46.01
2023-05-07T01:51:34.912Z,46.38
2023-05-07T02:01:38.679Z,46.45
2023-05-07T02:11:42.388Z,46.87
2023-05-07T02:21:49.580Z,47.37
2023-05-07T02:31:54.268Z,47.60
2023-05-07T02:41:58.067Z,47.35
2023-05-07T02:52:01.849Z,46.98
2023-05-07T03:02:05.806Z,46.69
2023-05-07T03:12:09.570Z,46.13
2023-05-07T03:22:13.428Z,45.46
2023-05-07T03:32:17.277Z,44.93
2023-05-07T03:42:21.473Z,44.35
2023-05-07T03:52:27.258Z,41.18
2023-05-07T04:02:32.735Z,34.19
2023-05-07T04:12:37.238Z,27.10
2023-05-07T04:22:42.962Z,22.01
2023-05-07T04:32:47.388Z,18.81
2023-05-07T04:42:51.514Z,16.32
2023-05-07T04:52:55.595Z,14.94
2023-05-07T05:03:01.146Z,13.67
2023-05-07T05:13:06.466Z,13.40
2023-05-07T05:23:10.297Z,15.74
2023-05-07T05:33:14.550Z,19.60
2023-05-07T05:43:18.839Z,22.40
2023-05-07T05:53:42.633Z,24.42
2023-05-07T06:03:46.828Z,26.63
2023-05-07T06:13:51.978Z,28.13
2023-05-07T06:23:56.169Z,28.69
2023-05-07T06:34:00.687Z,29.00
2023-05-07T06:44:09.776Z,29.23
2023-05-07T06:54:19.853Z,29.44
2023-05-07T07:04:25.534Z,29.92
2023-05-07T07:14:36.257Z,29.86
2023-05-07T07:24:41.014Z,29.87
2023-05-07T07:34:46.412Z,30.28
2023-05-07T07:44:51.409Z,30.14
2023-05-07T07:54:57.686Z,29.73
2023-05-07T08:05:01.681Z,29.25
2023-05-07T08:15:06.128Z,27.96
2023-05-07T08:25:10.585Z,27.65
2023-05-07T08:35:15.591Z,27.18
2023-05-07T08:45:23.548Z,26.22
2023-05-07T08:55:33.182Z,26.39
2023-05-07T09:05:37.264Z,25.76
2023-05-07T09:15:43.515Z,25.86
2023-05-07T09:25:47.996Z,25.52
2023-05-07T09:36:07.794Z,25.52
2023-05-07T09:46:21.534Z,25.53
2023-05-07T09:56:28.083Z,25.34
2023-05-07T10:06:32.871Z,25.38
2023-05-07T10:16:38.989Z,25.69
2023-05-07T10:26:51.663Z,26.17
2023-05-07T10:36:58.045Z,25.88
2023-05-07T10:47:14.329Z,24.99
2023-05-07T10:57:38.803Z,24.63
2023-05-07T11:07:56.773Z,24.11
2023-05-07T11:18:04.456Z,24.15
2023-05-07T11:28:11.753Z,23.94
2023-05-07T11:38:58.554Z,24.79
2023-05-07T11:49:04.586Z,24.63
2023-05-07T11:59:08.404Z,24.73
2023-05-07T12:09:14.394Z,24.20
2023-05-07T12:19:20.046Z,24.09
2023-05-07T12:29:26.610Z,24.18
2023-05-07T12:39:30.324Z,24.08
2023-05-07T12:49:41.306Z,23.81
2023-05-07T12:59:44.900Z,22.73
2023-05-07T13:09:49.693Z,23.11
2023-05-07T13:19:57.894Z,23.26
2023-05-07T13:30:01.490Z,23.30
2023-05-07T13:40:06.131Z,23.68
2023-05-07T13:50:16.397Z,23.27
2023-05-07T14:00:19.987Z,22.93
2023-05-07T14:10:23.765Z,23.31
2023-05-07T14:20:27.575Z,23.19
2023-05-07T14:30:31.271Z,23.09
2023-05-07T14:40:34.877Z,23.37
2023-05-07T14:50:38.581Z,23.21
2023-05-07T15:00:44.976Z,22.57
2023-05-07T15:10:48.980Z,22.92
2023-05-07T15:20:52.618Z,23.15
2023-05-07T15:30:57.381Z,23.14
2023-05-07T15:41:01.046Z,23.58
2023-05-07T15:51:08.034Z,23.48
2023-05-07T16:01:11.720Z,23.67
2023-05-07T16:11:15.553Z,23.95
2023-05-07T16:21:19.173Z,23.72
2023-05-07T16:31:22.873Z,23.64
2023-05-07T16:41:26.979Z,23.59
2023-05-07T16:51:30.608Z,24.21
2023-05-07T17:01:34.540Z,23.93
2023-05-07T17:11:38.335Z,24.50
2023-05-07T17:21:42.019Z,24.62
2023-05-07T17:31:46.578Z,24.45
2023-05-07T17:41:50.628Z,24.71
2023-05-07T17:51:56.236Z,25.04
2023-05-07T18:02:00.004Z,25.34
2023-05-07T18:12:03.784Z,25.84
2023-05-07T18:22:07.586Z,26.83
2023-05-07T18:32:12.283Z,27.85
2023-05-07T18:42:16.091Z,28.69
2023-05-07T18:52:22.236Z,29.22
2023-05-07T19:02:26.280Z,29.33
2023-05-07T19:12:30.276Z,30.06
2023-05-07T19:22:33.981Z,30.91
2023-05-07T19:32:40.526Z,31.89
2023-05-07T19:42:44.341Z,33.04
2023-05-07T19:52:50.451Z,33.53
2023-05-07T20:02:54.365Z,33.53
2023-05-07T20:12:58.238Z,33.91
2023-05-07T20:23:02.101Z,34.66
2023-05-07T20:33:05.920Z,35.26
2023-05-07T20:43:09.774Z,35.58
2023-05-07T20:53:13.379Z,35.97
2023-05-07T21:03:17.655Z,36.34
2023-05-07T21:13:21.945Z,36.72
2023-05-07T21:23:25.721Z,36.89
2023-05-07T21:33:29.410Z,37.13
2023-05-07T21:43:33.242Z,37.49
2023-05-07T21:53:37.029Z,37.83
2023-05-07T22:03:41.281Z,38.16
2023-05-07T22:13:45.306Z,38.46
2023-05-07T22:23:48.941Z,38.91
2023-05-07T22:33:52.518Z,39.00
2023-05-07T22:43:56.468Z,39.31
2023-05-07T22:54:00.213Z,39.34
2023-05-07T23:04:03.901Z,39.50
2023-05-07T23:14:07.521Z,39.78
2023-05-07T23:24:12.729Z,40.04
2023-05-07T23:34:16.553Z,40.67
2023-05-07T23:44:20.218Z,40.72
2023-05-07T23:54:24.597Z,41.02
